Time;durP1;ratioP1;P1;durP2;ratioP2;P2;SDS_P1;SDS_P2;PMS_P1;PMS_P2;Temp;Humidity;BMP_temperature;BMP_pressure;BME280_temperature;BME280_humidity;BME280_pressure;Samples;Min_cycle;Max_cycle;Signal;HPM_P1;HPM_P2
2022/01/15 00:01:08;;;;;;;10.25;5.57;;;26.60;64.40;;;;;;4999072;28;20095;-72
2022/01/15 00:03:35;;;;;;;9.50;5.00;;;26.60;64.40;;;;;;5000044;28;20038;-72
2022/01/15 00:06:01;;;;;;;8.52;5.05;;;26.60;64.50;;;;;;4999613;28;20481;-69
2022/01/15 00:08:28;;;;;;;6.85;4.00;;;26.60;64.60;;;;;;4999109;28;20458;-71
2022/01/15 00:10:54;;;;;;;8.57;3.88;;;26.50;64.60;;;;;;4993236;28;20022;-69
2022/01/15 00:13:26;;;;;;;8.07;4.93;;;26.50;64.60;;;;;;5001963;28;20010;-69
2022/01/15 00:16:06;;;;;;;7.63;4.10;;;26.50;64.70;;;;;;4998914;28;20023;-70
2022/01/15 00:19:21;;;;;;;9.75;4.15;;;26.50;64.70;;;;;;4998756;28;20500;-70
2022/01/15 00:21:19;;;;;;;9.25;4.35;;;26.50;64.90;;;;;;4987719;28;20038;-70
2022/01/15 00:23:46;;;;;;;9.63;4.95;;;26.50;64.90;;;;;;4994841;28;20077;-69
2022/01/15 00:26:12;;;;;;;11.98;5.43;;;26.40;64.90;;;;;;4998726;28;20497;-69
2022/01/15 00:28:39;;;;;;;7.22;4.82;;;26.40;64.90;;;;;;5001011;28;20469;-69
2022/01/15 00:31:05;;;;;;;8.55;4.05;;;26.40;64.90;;;;;;4994345;28;20065;-69
2022/01/15 00:33:31;;;;;;;13.07;5.45;;;26.40;64.90;;;;;;5026357;28;20393;-70
2022/01/15 00:35:58;;;;;;;8.07;4.47;;;26.40;64.90;;;;;;5002327;28;20397;-69
2022/01/15 00:38:25;;;;;;;11.40;4.55;;;26.40;65.00;;;;;;4997097;28;20014;-69
2022/01/15 00:40:52;;;;;;;14.18;5.50;;;26.40;65.70;;;;;;4998958;28;20529;-69
2022/01/15 00:43:19;;;;;;;13.32;4.80;;;26.40;65.10;;;;;;5002680;28;20038;-69
2022/01/15 00:45:46;;;;;;;8.98;4.57;;;26.40;65.10;;;;;;4999669;28;20045;-69
2022/01/15 00:48:13;;;;;;;11.88;4.93;;;26.40;65.20;;;;;;4997501;28;20042;-69
2022/01/15 00:50:39;;;;;;;9.13;4.35;;;26.40;65.20;;;;;;4999644;28;20034;-69
2022/01/15 00:53:06;;;;;;;8.65;4.30;;;26.40;65.20;;;;;;4999772;28;20461;-69
2022/01/15 00:55:32;;;;;;;9.30;4.65;;;26.40;65.20;;;;;;5002332;28;20366;-71
2022/01/15 00:57:59;;;;;;;7.35;3.83;;;26.40;65.20;;;;;;4994525;28;20096;-69
2022/01/15 01:00:26;;;;;;;14.32;4.70;;;26.40;65.20;;;;;;4996558;28;20026;-72
2022/01/15 01:02:53;;;;;;;26.17;5.45;;;26.40;65.20;;;;;;4997038;28;20382;-70
2022/01/15 01:05:21;;;;;;;13.80;4.00;;;26.30;65.20;;;;;;4995993;28;20093;-70
2022/01/15 01:07:48;;;;;;;12.63;5.07;;;26.30;65.40;;;;;;4996775;28;20049;-70
2022/01/15 01:21:33;;;;;;;;;;;26.20;65.30;;;;;;5005863;28;20048;-70
2022/01/15 01:23:49;;;;;;;7.45;4.55;;;26.20;65.20;;;;;;5001040;28;20287;-70
2022/01/15 01:26:30;;;;;;;9.45;4.03;;;26.20;65.20;;;;;;5001189;28;20037;-70
2022/01/15 01:32:01;;;;;;;;;;;26.20;65.20;;;;;;4980905;28;20042;-71
2022/01/15 01:34:31;;;;;;;5.45;3.67;;;26.20;65.30;;;;;;5001815;28;19914;-70
2022/01/15 01:39:35;;;;;;;10.88;4.35;;;26.20;65.20;;;;;;5002165;28;20026;-71
2022/01/15 01:42:11;;;;;;;11.35;3.88;;;26.20;65.30;;;;;;5001539;28;20103;-71
2022/01/15 01:44:42;;;;;;;9.15;4.57;;;26.20;65.30;;;;;;5000435;28;20396;-69
2022/01/15 01:47:24;;;;;;;7.75;4.03;;;26.20;65.30;;;;;;4999594;28;20026;-70
2022/01/15 01:49:51;;;;;;;9.10;4.60;;;26.20;65.30;;;;;;4998771;28;20014;-71
2022/01/15 01:52:17;;;;;;;11.40;5.07;;;26.20;65.30;;;;;;5001671;28;20030;-70
2022/01/15 01:54:44;;;;;;;6.90;4.22;;;26.20;65.20;;;;;;5030428;28;20030;-70
2022/01/15 01:57:11;;;;;;;10.52;4.82;;;26.20;65.20;;;;;;5000119;28;20536;-70
2022/01/15 01:59:37;;;;;;;8.75;4.70;;;26.20;65.20;;;;;;5002911;28;20049;-70
2022/01/15 02:02:04;;;;;;;11.52;4.72;;;26.20;65.20;;;;;;4998082;28;20044;-70
2022/01/15 02:04:31;;;;;;;10.85;5.28;;;26.20;65.20;;;;;;4999026;28;20030;-71
2022/01/15 02:06:58;;;;;;;10.35;4.70;;;26.20;65.30;;;;;;5003012;28;20052;-70
2022/01/15 02:09:25;;;;;;;13.52;5.35;;;26.20;65.30;;;;;;5002322;28;20061;-70
2022/01/15 02:11:51;;;;;;;13.00;5.95;;;26.10;65.20;;;;;;4999424;28;20026;-71
2022/01/15 02:14:28;;;;;;;11.15;5.35;;;26.10;65.30;;;;;;5004901;28;20040;-72
2022/01/15 02:16:56;;;;;;;12.68;5.63;;;26.20;65.40;;;;;;4999085;28;20049;-70
2022/01/15 02:19:25;;;;;;;10.98;5.70;;;26.20;65.50;;;;;;4999779;28;20068;-71
2022/01/15 02:24:37;;;;;;;11.30;5.75;;;26.10;65.50;;;;;;5003666;28;20081;-71
2022/01/15 02:27:03;;;;;;;14.27;6.35;;;26.10;65.50;;;;;;5001639;28;20147;-72
2022/01/15 02:29:30;;;;;;;11.38;5.18;;;26.10;65.50;;;;;;4998484;28;20045;-71
2022/01/15 02:31:56;;;;;;;14.00;6.10;;;26.10;65.50;;;;;;5003601;28;20433;-71
2022/01/15 02:34:22;;;;;;;11.35;5.28;;;26.10;65.50;;;;;;5002294;28;20065;-71
2022/01/15 02:36:49;;;;;;;10.80;5.75;;;26.10;65.60;;;;;;5002908;28;21773;-71
2022/01/15 02:39:15;;;;;;;14.93;5.47;;;26.10;65.60;;;;;;5002674;28;20393;-71
2022/01/15 02:41:42;;;;;;;18.35;5.18;;;26.10;65.60;;;;;;5000876;28;20381;-71
2022/01/15 02:44:16;;;;;;;15.02;5.97;;;26.00;65.50;;;;;;5003025;28;20094;-71
2022/01/15 02:49:17;;;;;;;10.18;4.93;;;26.00;65.60;;;;;;4999940;28;20094;-71
2022/01/15 02:51:44;;;;;;;11.02;4.78;;;26.00;65.60;;;;;;5002942;28;20022;-71
2022/01/15 02:54:11;;;;;;;7.18;4.97;;;26.00;65.70;;;;;;5003732;28;20641;-71
2022/01/15 02:56:43;;;;;;;12.80;4.65;;;26.00;65.60;;;;;;5013089;28;20034;-71
2022/01/15 02:59:22;;;;;;;13.13;4.90;;;26.00;65.60;;;;;;5000342;28;20083;-71
2022/01/15 03:01:49;;;;;;;7.53;4.53;;;26.00;65.60;;;;;;4998543;28;20046;-71
2022/01/15 03:04:19;;;;;;;10.18;5.35;;;26.00;65.60;;;;;;5004163;28;20041;-71
2022/01/15 03:06:46;;;;;;;11.93;3.88;;;26.00;65.60;;;;;;4999903;28;20068;-73
2022/01/15 03:09:13;;;;;;;15.15;4.53;;;26.00;65.70;;;;;;4999163;28;20054;-72
2022/01/15 03:11:41;;;;;;;13.88;3.95;;;26.00;65.60;;;;;;5000313;28;20501;-71
2022/01/15 03:14:08;;;;;;;35.55;6.60;;;25.90;65.50;;;;;;5000294;28;20061;-73
2022/01/15 03:16:35;;;;;;;14.82;4.05;;;26.00;65.80;;;;;;5002511;28;20051;-72
2022/01/15 03:19:01;;;;;;;13.77;3.88;;;25.90;65.60;;;;;;4997623;28;20030;-72
2022/01/15 03:21:28;;;;;;;14.25;3.35;;;25.90;65.40;;;;;;5003843;28;20017;-71
2022/01/15 03:23:54;;;;;;;8.43;2.70;;;25.90;65.20;;;;;;4993174;28;20113;-72
2022/01/15 03:26:21;;;;;;;5.15;2.15;;;25.90;65.10;;;;;;5002368;28;20022;-71
2022/01/15 03:28:47;;;;;;;8.02;2.40;;;25.80;64.90;;;;;;4997630;28;20126;-72
2022/01/15 03:31:14;;;;;;;5.90;2.38;;;25.80;64.80;;;;;;5000712;28;20535;-71
2022/01/15 03:33:41;;;;;;;5.57;2.30;;;25.80;64.90;;;;;;4999645;28;20026;-71
2022/01/15 03:36:08;;;;;;;6.72;2.22;;;25.80;64.80;;;;;;5001141;28;20069;-72
2022/01/15 03:38:36;;;;;;;4.82;1.90;;;25.80;64.80;;;;;;5001060;28;20028;-73
2022/01/15 03:41:03;;;;;;;3.90;2.20;;;25.80;64.80;;;;;;5015863;28;20089;-74
2022/01/15 03:43:29;;;;;;;5.80;2.05;;;25.70;64.70;;;;;;4996354;28;20022;-72
2022/01/15 03:45:56;;;;;;;3.78;1.48;;;25.70;64.70;;;;;;4995221;28;20076;-70
2022/01/15 03:48:24;;;;;;;4.97;1.77;;;25.70;64.80;;;;;;4998418;28;20492;-73
2022/01/15 03:50:51;;;;;;;7.45;2.15;;;25.70;64.80;;;;;;5001369;28;20026;-73
2022/01/15 03:53:17;;;;;;;5.35;1.40;;;25.70;64.80;;;;;;4994397;28;20032;-71
2022/01/15 03:55:44;;;;;;;15.88;3.15;;;25.70;64.80;;;;;;4997407;28;20109;-72
2022/01/15 03:58:10;;;;;;;27.08;3.20;;;25.70;64.80;;;;;;4998791;28;20031;-72
2022/01/15 04:00:37;;;;;;;21.15;3.22;;;25.60;64.70;;;;;;5000403;28;20052;-72
2022/01/15 04:03:03;;;;;;;24.52;4.97;;;25.60;64.60;;;;;;4993633;28;20042;-71
2022/01/15 04:05:31;;;;;;;28.48;5.15;;;25.60;64.60;;;;;;5000397;28;20031;-73
2022/01/15 04:07:58;;;;;;;33.60;4.95;;;25.60;64.80;;;;;;5031523;28;20490;-73
2022/01/15 04:10:27;;;;;;;21.05;4.15;;;25.60;65.00;;;;;;5029868;28;20389;-73
2022/01/15 04:12:54;;;;;;;15.30;3.78;;;25.60;65.20;;;;;;4998646;28;20050;-72
2022/01/15 04:16:00;;;;;;;15.75;2.72;;;25.60;65.20;;;;;;5014247;28;20030;-72
2022/01/15 04:18:50;;;;;;;49.90;8.13;;;25.60;65.30;;;;;;5001601;28;20026;-71
2022/01/15 04:21:16;;;;;;;112.97;76.50;;;25.60;65.40;;;;;;4996594;28;20556;-73
2022/01/15 04:23:43;;;;;;;70.18;42.45;;;25.60;66.70;;;;;;4997105;28;20504;-72
2022/01/15 04:26:09;;;;;;;47.45;26.73;;;25.60;66.70;;;;;;4998250;28;20058;-73
2022/01/15 04:28:36;;;;;;;43.53;16.85;;;25.60;66.60;;;;;;4996355;28;20014;-73
2022/01/15 04:31:06;;;;;;;21.88;8.13;;;25.60;66.50;;;;;;5001772;28;20040;-74
2022/01/15 04:33:38;;;;;;;25.63;5.45;;;25.60;66.30;;;;;;4997046;28;21388;-71
2022/01/15 04:36:07;;;;;;;20.80;4.55;;;25.60;66.50;;;;;;5000464;28;20027;-72
2022/01/15 04:38:37;;;;;;;22.02;3.13;;;25.60;66.50;;;;;;5000121;28;20474;-72
2022/01/15 04:41:07;;;;;;;11.27;3.15;;;25.60;67.40;;;;;;4999704;28;20085;-73
2022/01/15 04:43:36;;;;;;;16.85;3.03;;;25.60;66.80;;;;;;5002903;28;20026;-72
2022/01/15 04:46:02;;;;;;;16.17;2.70;;;25.60;66.70;;;;;;4997769;28;20440;-72
2022/01/15 04:48:29;;;;;;;12.07;2.50;;;25.70;66.70;;;;;;4998475;28;20049;-72
2022/01/15 04:50:55;;;;;;;10.77;2.10;;;25.70;66.80;;;;;;4999656;28;20481;-74
2022/01/15 04:53:22;;;;;;;9.75;2.60;;;25.70;66.80;;;;;;5004625;28;20566;-71
2022/01/15 04:55:48;;;;;;;3.67;1.70;;;25.70;66.70;;;;;;5001947;28;20072;-70
2022/01/15 04:58:15;;;;;;;4.15;1.70;;;25.80;66.80;;;;;;5005401;28;20029;-74
2022/01/15 05:00:41;;;;;;;3.72;1.83;;;25.80;66.70;;;;;;5000575;28;20037;-72
2022/01/15 05:03:08;;;;;;;5.60;2.30;;;25.80;66.70;;;;;;5003392;28;20049;-71
2022/01/15 05:05:34;;;;;;;6.78;1.92;;;25.80;66.60;;;;;;5003187;28;20033;-72
2022/01/15 05:08:02;;;;;;;3.50;1.92;;;25.80;66.60;;;;;;4999787;28;20029;-73
2022/01/15 05:10:28;;;;;;;3.58;1.58;;;25.80;66.60;;;;;;5003784;28;20022;-71
2022/01/15 05:12:58;;;;;;;4.97;1.63;;;25.80;66.60;;;;;;4998689;28;20554;-72
2022/01/15 05:15:25;;;;;;;3.50;2.10;;;25.80;66.70;;;;;;5002325;28;20028;-72
2022/01/15 05:17:52;;;;;;;6.78;1.75;;;25.80;66.70;;;;;;5018180;28;20023;-72
2022/01/15 05:20:20;;;;;;;7.13;2.72;;;25.80;66.70;;;;;;5004620;28;20088;-72
2022/01/15 05:22:48;;;;;;;5.28;2.22;;;25.80;66.70;;;;;;5002624;28;20056;-74
2022/01/15 05:25:17;;;;;;;9.50;2.35;;;25.80;66.60;;;;;;5002502;28;20580;-74
2022/01/15 05:27:45;;;;;;;6.75;3.03;;;25.90;66.60;;;;;;5000627;28;20387;-72
2022/01/15 05:30:12;;;;;;;12.18;3.03;;;25.90;66.50;;;;;;4996667;28;20105;-76
2022/01/15 05:32:40;;;;;;;10.85;3.00;;;25.90;66.20;;;;;;4986521;28;20489;-74
2022/01/15 05:35:08;;;;;;;10.82;3.40;;;25.90;66.00;;;;;;4988473;28;20053;-75
2022/01/15 05:37:34;;;;;;;14.65;4.25;;;25.90;66.00;;;;;;4990281;28;20074;-73
2022/01/15 05:40:01;;;;;;;13.55;3.17;;;25.90;66.10;;;;;;5005331;28;20022;-72
2022/01/15 05:42:27;;;;;;;18.23;3.38;;;26.00;66.10;;;;;;4990052;28;20512;-72
2022/01/15 05:44:54;;;;;;;15.23;3.72;;;26.00;65.90;;;;;;4993793;28;20026;-77
2022/01/15 05:47:20;;;;;;;20.38;3.85;;;26.00;65.30;;;;;;4985832;28;20117;-74
2022/01/15 05:49:47;;;;;;;10.20;4.13;;;25.90;65.70;;;;;;4993653;28;20025;-77
2022/01/15 05:52:13;;;;;;;13.63;8.82;;;25.80;66.20;;;;;;4992125;28;20163;-71
2022/01/15 05:54:40;;;;;;;17.52;13.85;;;25.70;66.40;;;;;;4985346;28;20410;-74
2022/01/15 05:57:07;;;;;;;27.40;18.35;;;25.60;66.70;;;;;;4988340;28;20373;-73
2022/01/15 05:59:34;;;;;;;27.70;18.20;;;25.70;66.80;;;;;;4990788;28;20056;-73
2022/01/15 06:02:01;;;;;;;22.85;10.98;;;25.70;66.70;;;;;;4988950;28;20057;-70
2022/01/15 06:04:27;;;;;;;40.72;9.75;;;25.80;66.60;;;;;;4986964;28;20038;-73
2022/01/15 06:06:54;;;;;;;34.67;7.75;;;25.90;66.40;;;;;;4990937;28;20485;-71
2022/01/15 06:09:20;;;;;;;48.05;7.97;;;26.00;66.90;;;;;;4985525;28;20019;-75
2022/01/15 06:11:47;;;;;;;25.55;6.45;;;26.00;66.10;;;;;;4990448;28;20019;-69
2022/01/15 06:14:13;;;;;;;47.45;6.50;;;26.10;66.00;;;;;;4990096;28;20025;-69
2022/01/15 06:16:40;;;;;;;23.95;4.00;;;26.20;66.00;;;;;;4986689;28;20065;-74
2022/01/15 06:19:06;;;;;;;34.83;4.85;;;26.20;65.80;;;;;;5006698;28;20393;-76
2022/01/15 06:21:33;;;;;;;18.60;5.00;;;26.20;65.60;;;;;;4988039;28;20481;-73
2022/01/15 06:24:39;;;;;;;37.75;8.40;;;26.20;65.30;;;;;;4986501;28;20057;-72
2022/01/15 06:27:45;;;;;;;52.97;7.53;;;26.30;65.20;;;;;;4988003;28;20022;-71
2022/01/15 06:30:51;;;;;;;27.33;5.53;;;26.30;65.30;;;;;;4986871;28;20038;-68
2022/01/15 06:33:57;;;;;;;28.75;6.65;;;26.40;65.30;;;;;;4988946;28;20034;-73
2022/01/15 06:37:04;;;;;;;50.13;7.03;;;26.40;65.20;;;;;;4990633;28;20040;-74
2022/01/15 06:40:12;;;;;;;33.50;5.43;;;26.50;65.20;;;;;;4990050;28;20481;-74
2022/01/15 06:43:18;;;;;;;31.98;4.97;;;26.50;65.20;;;;;;4989188;28;20034;-71
2022/01/15 06:46:24;;;;;;;17.55;5.88;;;26.50;65.20;;;;;;4987241;28;20113;-71
2022/01/15 06:49:30;;;;;;;23.13;5.05;;;26.50;65.20;;;;;;4985421;28;20026;-73
2022/01/15 06:52:36;;;;;;;23.80;3.80;;;26.50;65.10;;;;;;4987646;28;20042;-75
2022/01/15 06:55:43;;;;;;;24.92;5.53;;;26.60;65.50;;;;;;4988655;28;20034;-70
2022/01/15 06:58:49;;;;;;;29.00;4.78;;;26.60;65.30;;;;;;4986756;28;20030;-70
2022/01/15 07:01:55;;;;;;;23.98;4.80;;;26.60;65.10;;;;;;4989351;28;20381;-71
2022/01/15 07:05:01;;;;;;;20.77;3.70;;;26.70;65.30;;;;;;4989527;28;20454;-70
2022/01/15 07:08:07;;;;;;;21.30;4.63;;;26.70;65.50;;;;;;4987923;28;20022;-71
2022/01/15 07:11:13;;;;;;;19.30;3.88;;;26.80;65.20;;;;;;4988714;28;20027;-72
2022/01/15 07:14:19;;;;;;;16.80;3.85;;;26.80;65.00;;;;;;4991099;28;20103;-71
2022/01/15 07:17:25;;;;;;;29.88;5.47;;;26.90;64.80;;;;;;4989507;28;20662;-72
2022/01/15 07:20:31;;;;;;;32.25;4.53;;;26.90;64.70;;;;;;4989517;28;20017;-71
2022/01/15 07:23:38;;;;;;;29.60;5.70;;;27.00;64.70;;;;;;4989838;28;20065;-73
2022/01/15 07:26:44;;;;;;;37.08;5.05;;;27.00;64.60;;;;;;4984667;28;20042;-71
2022/01/15 07:29:50;;;;;;;29.52;3.78;;;27.10;64.70;;;;;;4988298;28;20038;-70
2022/01/15 07:32:57;;;;;;;18.23;4.22;;;27.10;64.70;;;;;;4988512;28;20486;-73
2022/01/15 07:36:03;;;;;;;7.72;3.08;;;27.10;64.60;;;;;;4985693;28;20037;-73
2022/01/15 07:39:09;;;;;;;17.13;4.53;;;27.10;64.50;;;;;;4988509;28;20173;-71
2022/01/15 07:42:15;;;;;;;13.13;3.78;;;27.20;64.60;;;;;;4987002;28;20018;-71
2022/01/15 07:45:21;;;;;;;12.73;4.25;;;27.30;64.40;;;;;;4986366;28;20125;-71
2022/01/15 07:48:27;;;;;;;10.13;2.50;;;27.30;64.30;;;;;;4988199;28;20030;-72
2022/01/15 07:51:33;;;;;;;10.80;3.95;;;27.30;64.10;;;;;;4989826;28;20429;-72
2022/01/15 07:54:39;;;;;;;17.85;4.25;;;27.40;64.10;;;;;;4989974;28;20470;-72
2022/01/15 07:57:45;;;;;;;13.27;4.03;;;27.40;64.10;;;;;;4985333;28;20053;-71
2022/01/15 08:00:52;;;;;;;13.93;3.90;;;27.40;64.30;;;;;;4989228;28;20529;-71
2022/01/15 08:03:58;;;;;;;20.75;3.70;;;27.40;64.20;;;;;;4991287;28;20051;-72
2022/01/15 08:07:04;;;;;;;27.08;5.13;;;27.40;64.20;;;;;;4984233;28;20041;-72
2022/01/15 08:10:10;;;;;;;24.35;4.60;;;27.40;64.40;;;;;;4985026;28;20022;-72
2022/01/15 08:13:26;;;;;;;15.52;4.22;;;27.40;64.60;;;;;;4985726;28;20022;-71
2022/01/15 08:16:32;;;;;;;9.43;3.45;;;27.40;64.70;;;;;;4986157;28;20022;-71
2022/01/15 08:19:38;;;;;;;22.55;4.63;;;27.40;64.70;;;;;;4986646;28;20035;-72
2022/01/15 08:22:45;;;;;;;11.35;2.70;;;27.40;64.80;;;;;;4985690;28;20454;-71
2022/01/15 08:25:51;;;;;;;12.35;3.67;;;27.40;64.80;;;;;;4988119;28;20039;-71
2022/01/15 08:28:57;;;;;;;9.55;4.15;;;27.40;64.80;;;;;;4983126;28;20022;-75
2022/01/15 08:32:03;;;;;;;12.70;3.58;;;27.40;64.90;;;;;;4986036;28;20037;-72
2022/01/15 08:35:09;;;;;;;16.25;5.32;;;27.40;64.90;;;;;;4991175;28;20022;-70
2022/01/15 08:38:18;;;;;;;12.40;3.67;;;27.40;65.00;;;;;;4985115;28;20371;-71
2022/01/15 08:41:24;;;;;;;11.57;3.40;;;27.50;65.00;;;;;;4984154;28;20076;-72
2022/01/15 08:44:30;;;;;;;14.95;5.68;;;27.50;65.00;;;;;;4988990;28;20089;-72
2022/01/15 08:47:36;;;;;;;14.90;3.50;;;27.50;65.10;;;;;;4985284;28;20397;-71
2022/01/15 08:50:42;;;;;;;15.50;3.22;;;27.50;64.90;;;;;;4982303;28;20057;-72
2022/01/15 08:53:48;;;;;;;14.95;4.22;;;27.50;64.80;;;;;;5019850;28;20033;-73
2022/01/15 08:56:55;;;;;;;13.30;3.28;;;27.50;64.60;;;;;;4987225;28;20030;-73
2022/01/15 09:00:01;;;;;;;15.63;3.85;;;27.60;64.60;;;;;;4986823;28;20029;-72
2022/01/15 09:03:07;;;;;;;27.17;4.80;;;27.60;64.80;;;;;;4985264;28;20042;-71
2022/01/15 09:06:13;;;;;;;26.30;3.90;;;27.70;64.90;;;;;;4984822;28;20061;-72
2022/01/15 09:09:19;;;;;;;13.38;3.75;;;27.70;64.60;;;;;;4985107;28;20034;-72
2022/01/15 09:12:25;;;;;;;11.48;3.45;;;27.70;64.50;;;;;;4981839;28;20058;-72
2022/01/15 09:15:31;;;;;;;14.30;3.53;;;27.70;64.10;;;;;;4987296;28;20027;-72
2022/01/15 09:18:37;;;;;;;16.73;4.47;;;27.70;63.90;;;;;;5016105;28;20499;-71
2022/01/15 09:21:43;;;;;;;15.93;5.18;;;27.80;63.60;;;;;;4985968;28;20034;-69
2022/01/15 09:24:49;;;;;;;12.93;3.88;;;27.70;63.70;;;;;;4979032;28;20393;-72
2022/01/15 09:31:37;;;;;;;10.10;3.20;;;27.80;64.00;;;;;;4913925;29;20131;-75
2022/01/15 09:34:43;;;;;;;23.13;3.30;;;27.80;63.80;;;;;;4979236;28;20081;-76
2022/01/15 09:37:09;;;;;;;34.10;5.70;;;27.90;63.60;;;;;;4978444;28;20415;-69
2022/01/15 09:39:36;;;;;;;17.10;4.63;;;27.90;63.70;;;;;;4985021;28;20032;-72
2022/01/15 09:42:03;;;;;;;17.73;3.72;;;27.90;64.00;;;;;;4981577;28;20038;-72
2022/01/15 09:44:34;;;;;;;22.55;4.10;;;27.90;63.80;;;;;;4997472;28;20043;-75
2022/01/15 09:47:01;;;;;;;9.65;4.03;;;27.90;63.60;;;;;;4986162;28;20014;-71
2022/01/15 09:49:29;;;;;;;8.02;3.00;;;28.00;63.40;;;;;;4983958;28;20060;-81
2022/01/15 09:51:56;;;;;;;9.88;3.80;;;28.00;63.20;;;;;;4984431;28;20027;-71
2022/01/15 09:54:22;;;;;;;12.40;3.65;;;28.10;63.20;;;;;;4989086;28;20034;-73
2022/01/15 09:56:49;;;;;;;10.30;3.17;;;28.10;63.40;;;;;;5006642;28;20028;-75
2022/01/15 09:59:16;;;;;;;11.70;3.65;;;28.20;63.30;;;;;;4998150;28;20018;-70
2022/01/15 10:01:43;;;;;;;17.42;6.30;;;28.20;62.80;;;;;;5000045;28;20066;-75
2022/01/15 10:04:10;;;;;;;27.55;4.65;;;28.20;62.60;;;;;;5005258;28;20025;-69
2022/01/15 10:06:36;;;;;;;20.35;6.32;;;28.20;63.40;;;;;;5000982;28;20014;-72
2022/01/15 10:09:09;;;;;;;17.02;6.43;;;28.20;63.00;;;;;;4998982;28;20034;-72
2022/01/15 10:11:59;;;;;;;14.80;5.18;;;28.20;62.40;;;;;;4997903;28;20374;-70
2022/01/15 10:14:28;;;;;;;23.85;6.45;;;28.20;62.20;;;;;;5001228;28;20080;-72
2022/01/15 10:16:56;;;;;;;23.33;3.78;;;28.20;62.00;;;;;;5001400;28;20104;-70
2022/01/15 10:19:36;;;;;;;7.40;2.85;;;28.20;62.10;;;;;;5000330;28;20068;-68
2022/01/15 10:22:11;;;;;;;11.32;3.38;;;28.20;61.90;;;;;;4999852;28;20093;-70
2022/01/15 10:24:43;;;;;;;17.63;4.10;;;28.30;61.80;;;;;;4998538;28;20053;-70
2022/01/15 10:27:23;;;;;;;28.77;5.35;;;28.30;61.60;;;;;;5003244;28;20034;-68
2022/01/15 10:29:55;;;;;;;39.30;4.63;;;28.30;62.10;;;;;;4999908;28;20087;-69
2022/01/15 10:32:24;;;;;;;21.63;3.97;;;28.30;61.50;;;;;;4996529;28;20511;-69
2022/01/15 10:34:51;;;;;;;18.40;3.00;;;28.30;61.60;;;;;;4998874;28;20081;-71
2022/01/15 10:37:47;;;;;;;11.55;3.33;;;28.30;61.60;;;;;;5005469;28;20125;-69
2022/01/15 10:40:15;;;;;;;13.13;4.57;;;28.40;61.40;;;;;;4999160;28;20022;-72
2022/01/15 10:42:41;;;;;;;11.18;3.15;;;28.40;61.20;;;;;;5001582;28;20015;-70
2022/01/15 10:45:16;;;;;;;30.27;4.47;;;28.40;61.10;;;;;;5002318;28;20519;-72
2022/01/15 10:47:52;;;;;;;25.15;3.83;;;28.50;61.20;;;;;;5001282;28;20029;-69
2022/01/15 10:50:28;;;;;;;26.13;5.88;;;28.60;61.30;;;;;;5031714;28;20034;-71
2022/01/15 10:52:56;;;;;;;19.27;5.50;;;28.60;61.20;;;;;;4997464;28;20091;-71
2022/01/15 10:55:31;;;;;;;16.30;4.85;;;28.60;61.00;;;;;;5002980;28;20085;-71
2022/01/15 10:57:59;;;;;;;20.95;4.38;;;28.70;60.50;;;;;;4996821;28;20021;-70
2022/01/15 11:00:28;;;;;;;22.55;4.22;;;28.80;60.40;;;;;;4998688;28;20030;-73
2022/01/15 11:03:00;;;;;;;15.40;3.50;;;28.80;60.20;;;;;;4998313;28;20041;-75
2022/01/15 11:05:44;;;;;;;35.72;5.18;;;28.80;59.90;;;;;;4998530;28;20034;-71
2022/01/15 11:08:14;;;;;;;17.90;4.20;;;28.90;60.10;;;;;;5002317;28;20029;-72
2022/01/15 11:10:55;;;;;;;27.67;4.45;;;28.90;60.00;;;;;;4999588;28;20285;-71
2022/01/15 11:13:27;;;;;;;15.32;3.42;;;29.00;59.70;;;;;;5000441;28;20041;-73
2022/01/15 11:15:56;;;;;;;8.05;3.17;;;29.00;59.20;;;;;;4997106;28;20052;-71
2022/01/15 11:18:27;;;;;;;15.55;3.97;;;29.00;59.00;;;;;;5002258;28;21396;-75
2022/01/15 11:20:57;;;;;;;6.82;2.67;;;29.00;58.90;;;;;;4996521;28;20018;-71
2022/01/15 11:23:26;;;;;;;11.52;3.17;;;29.10;58.70;;;;;;4999105;28;20027;-71
2022/01/15 11:25:56;;;;;;;9.93;3.08;;;29.10;58.70;;;;;;4999759;28;20389;-72
2022/01/15 11:28:25;;;;;;;13.13;3.35;;;29.10;58.80;;;;;;5003534;28;20033;-73
2022/01/15 11:31:34;;;;;;;15.73;3.83;;;29.10;58.70;;;;;;4998030;28;20443;-72
2022/01/15 11:34:41;;;;;;;7.28;3.55;;;29.20;58.70;;;;;;4997849;28;20041;-74
2022/01/15 11:37:18;;;;;;;12.48;2.90;;;29.30;58.60;;;;;;4997032;28;20022;-73
2022/01/15 11:39:47;;;;;;;7.63;3.17;;;29.30;58.40;;;;;;4996390;28;20026;-73
2022/01/15 11:42:35;;;;;;;12.65;3.63;;;29.30;58.70;;;;;;4996867;28;20473;-72
2022/01/15 11:45:03;;;;;;;16.45;2.85;;;29.30;58.70;;;;;;5001060;28;20045;-72
2022/01/15 11:47:32;;;;;;;10.98;3.30;;;29.40;58.40;;;;;;4983268;28;20036;-72
2022/01/15 11:50:17;;;;;;;19.55;5.78;;;29.50;58.20;;;;;;4986329;28;20076;-72
2022/01/15 11:52:44;;;;;;;11.88;4.50;;;29.50;58.30;;;;;;4985424;28;20080;-73
2022/01/15 11:55:14;;;;;;;11.32;3.58;;;29.50;58.20;;;;;;4986553;28;20011;-72
2022/01/15 11:57:51;;;;;;;10.60;2.85;;;29.50;58.00;;;;;;4988638;28;20421;-72
2022/01/15 12:00:28;;;;;;;8.00;2.67;;;29.50;57.90;;;;;;4986202;28;20394;-73
2022/01/15 12:03:00;;;;;;;6.93;2.92;;;29.50;57.90;;;;;;4985311;28;20162;-72
2022/01/15 12:05:30;;;;;;;11.77;2.90;;;29.50;57.90;;;;;;4990180;28;20032;-72
2022/01/15 12:08:10;;;;;;;11.65;3.58;;;29.50;57.90;;;;;;4989068;28;20061;-72
2022/01/15 12:10:51;;;;;;;12.68;2.75;;;29.50;58.20;;;;;;4998802;28;20058;-72
2022/01/15 12:13:23;;;;;;;59.10;6.10;;;29.50;58.20;;;;;;5000630;28;20031;-72
2022/01/15 12:16:15;;;;;;;35.78;4.78;;;29.60;58.60;;;;;;4991712;28;20037;-73
2022/01/15 12:18:49;;;;;;;16.35;3.88;;;29.60;58.60;;;;;;4984449;28;20532;-72
2022/01/15 12:21:45;;;;;;;13.38;3.60;;;29.70;58.10;;;;;;4986634;28;20022;-72
2022/01/15 12:24:38;;;;;;;7.45;2.60;;;29.70;57.80;;;;;;4983185;28;20053;-72
2022/01/15 12:27:07;;;;;;;12.82;3.25;;;29.80;57.50;;;;;;4985582;28;20108;-73
2022/01/15 12:29:35;;;;;;;12.00;3.28;;;29.80;57.60;;;;;;4985083;28;20030;-72
2022/01/15 12:32:02;;;;;;;18.02;4.80;;;29.80;57.50;;;;;;4987710;28;20026;-74
2022/01/15 12:34:31;;;;;;;23.65;4.45;;;29.80;57.50;;;;;;4983947;28;20476;-74
2022/01/15 12:36:58;;;;;;;8.73;3.35;;;29.90;57.90;;;;;;4983318;28;20264;-74
2022/01/15 12:39:38;;;;;;;10.82;3.63;;;29.90;58.40;;;;;;4983877;28;20153;-77
2022/01/15 12:42:07;;;;;;;8.10;4.53;;;29.90;57.60;;;;;;4984692;28;20026;-72
2022/01/15 12:44:44;;;;;;;8.75;3.50;;;29.90;57.50;;;;;;4982843;28;20041;-72
2022/01/15 12:47:12;;;;;;;9.43;3.20;;;29.90;57.10;;;;;;4995400;28;20117;-75
2022/01/15 12:49:41;;;;;;;16.20;3.53;;;29.90;57.00;;;;;;4997569;28;20092;-75
2022/01/15 12:52:13;;;;;;;8.50;2.78;;;29.90;57.20;;;;;;4997115;28;20054;-74
2022/01/15 12:54:40;;;;;;;65.70;7.30;;;29.80;57.20;;;;;;4996920;28;20041;-74
2022/01/15 12:57:08;;;;;;;39.78;5.63;;;29.80;57.50;;;;;;4999497;28;20106;-75
2022/01/15 12:59:38;;;;;;;20.02;4.20;;;29.80;57.70;;;;;;5005309;28;20014;-75
2022/01/15 13:02:05;;;;;;;15.73;3.33;;;29.80;57.60;;;;;;4998336;28;20046;-73
2022/01/15 13:04:32;;;;;;;15.43;4.55;;;29.80;57.60;;;;;;4999618;28;20144;-75
2022/01/15 13:07:03;;;;;;;20.42;4.65;;;29.70;58.20;;;;;;5001572;28;20092;-72
2022/01/15 13:09:56;;;;;;;14.57;3.55;;;29.70;57.80;;;;;;4997328;28;20030;-75
2022/01/15 13:13:05;;;;;;;13.30;4.65;;;29.70;57.90;;;;;;4994283;28;20038;-71
2022/01/15 13:16:23;;;;;;;14.40;3.88;;;29.80;58.20;;;;;;5002133;28;20358;-82
2022/01/15 13:19:30;;;;;;;10.93;4.95;;;29.70;57.20;;;;;;4998371;28;20053;-70
2022/01/15 13:21:56;;;;;;;22.05;5.43;;;29.70;57.20;;;;;;4993439;28;20019;-73
2022/01/15 13:25:08;;;;;;;18.85;8.73;;;29.70;57.40;;;;;;4989956;28;20046;-74
2022/01/15 13:28:12;;;;;;;46.38;24.27;;;29.70;57.50;;;;;;4986606;28;20355;-73
2022/01/15 13:30:38;;;;;;;61.70;53.45;;;29.70;57.70;;;;;;4991346;28;20141;-76
2022/01/15 13:33:56;;;;;;;75.63;68.40;;;29.70;57.70;;;;;;4989146;28;20428;-75
2022/01/15 13:37:02;;;;;;;41.97;30.80;;;29.70;57.70;;;;;;4986384;28;20030;-71
2022/01/15 13:40:09;;;;;;;61.40;36.85;;;29.70;57.80;;;;;;4990310;28;20033;-73
2022/01/15 13:43:15;;;;;;;62.80;44.03;;;29.70;57.70;;;;;;4985280;28;20026;-79
2022/01/15 13:46:27;;;;;;;57.50;39.47;;;29.80;58.10;;;;;;4991179;28;20433;-72
2022/01/15 13:49:00;;;;;;;84.55;48.20;;;29.80;58.20;;;;;;4991215;28;20029;-75
2022/01/15 13:55:37;;;;;;;47.13;32.47;;;29.90;58.30;;;;;;4988928;28;20072;-74
2022/01/15 13:58:43;;;;;;;50.67;33.63;;;29.90;58.70;;;;;;4987396;28;20448;-77
2022/01/15 14:01:36;;;;;;;39.15;26.77;;;29.90;58.00;;;;;;5010171;28;20027;-70
2022/01/15 14:04:28;;;;;;;36.42;24.15;;;30.00;58.00;;;;;;4995628;28;20066;-69
2022/01/15 14:07:34;;;;;;;39.72;31.50;;;30.00;58.00;;;;;;4991849;28;20085;-77